This is the latest recevied weather packets stored in our database for station/object KD2FGL-13. If no packets are shown the sender has not sent any weather packets the latest 10 day(s).
| Time | Temp. | Humidity | Pressure | Rain* | Wind** | Luminosity | Snow |
|---|---|---|---|---|---|---|---|
| 1787672923 | 26.11° C | 41% | 1017.7 hPa | 0 mm | - | - | - |
| 1787672629 | 26.11° C | 40% | 1017.7 hPa | 0 mm | - | - | - |
| 1787672316 | 26.11° C | 40% | 1017.7 hPa | 0 mm | - | - | - |
| 1787672012 | 26.67° C | 40% | 1017.7 hPa | 0 mm | - | - | - |
| 1787669884 | 26.11° C | 41% | 1018 hPa | 0 mm | - | - | - |
| 1787669581 | 26.11° C | 41% | 1018 hPa | 0 mm | - | - | - |
| 1787669278 | 26.11° C | 42% | 1018.1 hPa | 0 mm | - | - | - |
| 1787668669 | 26.11° C | 42% | 1018 hPa | 0 mm | - | - | - |
| 1787668365 | 26.11° C | 43% | 1018.1 hPa | 0 mm | - | - | - |
| 1787666846 | 25° C | 45% | 1018.1 hPa | 0 mm | - | - | - |
| 1787666237 | 25° C | 46% | 1018.1 hPa | 0 mm | - | - | - |
| 1787665934 | 25° C | 47% | 1018.2 hPa | 0 mm | - | - | - |
| 1787665022 | 23.89° C | 51% | 1017.9 hPa | 0 mm | - | - | - |
| 1787664110 | 22.22° C | 57% | 1018 hPa | 0 mm | - | - | - |
| 1787663806 | 21.11° C | 59% | 1018 hPa | 0 mm | - | - | - |
| 1787662591 | 18.33° C | 65% | 1018.2 hPa | 0 mm | - | - | - |
| 1787661982 | 17.22° C | 65% | 1018.1 hPa | 0 mm | - | - | - |
| 1787661678 | 17.22° C | 65% | 1018.1 hPa | 0 mm | - | - | - |
| 1787661377 | 17.22° C | 65% | 1018.1 hPa | 0 mm | - | - | - |
| 1787661071 | 16.67° C | 65% | 1018.1 hPa | 0 mm | - | - | - |
| 1787660767 | 16.67° C | 65% | 1018 hPa | 0 mm | - | - | - |
| 1787660159 | 16.67° C | 65% | 1018 hPa | 0 mm | - | - | - |
| 1787659855 | 16.67° C | 65% | 1018 hPa | 0 mm | - | - | - |
| 1787657119 | 15.56° C | 65% | 1017.8 hPa | 0 mm | - | - | - |
| 1787656815 | 15.56° C | 64% | 1017.9 hPa | 0 mm | - | - | - |
* Rain since midnight (hover to see other rain measurements)
** Current wind speed in m/s (hover to see current wind gust speed)